sensor_id;sensor_type;location;lat;lon;timestamp;P1;durP1;ratioP1;P2;durP2;ratioP2
60436;SDS011;46289;51.992;4.498;2024-01-27T00:01:43;10.90;;;2.67;;
60436;SDS011;46289;51.992;4.498;2024-01-27T00:03:48;10.88;;;2.55;;
60436;SDS011;46289;51.992;4.498;2024-01-27T00:05:53;7.10;;;2.35;;
60436;SDS011;46289;51.992;4.498;2024-01-27T00:07:58;8.32;;;2.97;;
60436;SDS011;46289;51.992;4.498;2024-01-27T00:10:04;10.30;;;2.97;;
60436;SDS011;46289;51.992;4.498;2024-01-27T00:12:13;2.13;;;1.92;;
60436;SDS011;46289;51.992;4.498;2024-01-27T00:14:18;10.00;;;2.75;;
60436;SDS011;46289;51.992;4.498;2024-01-27T00:16:23;10.15;;;2.83;;
60436;SDS011;46289;51.992;4.498;2024-01-27T00:18:28;6.03;;;2.17;;
60436;SDS011;46289;51.992;4.498;2024-01-27T00:20:33;10.07;;;3.45;;
60436;SDS011;46289;51.992;4.498;2024-01-27T00:22:35;15.82;;;2.85;;
60436;SDS011;46289;51.992;4.498;2024-01-27T00:24:40;9.75;;;2.38;;
60436;SDS011;46289;51.992;4.498;2024-01-27T00:26:45;10.27;;;1.95;;
60436;SDS011;46289;51.992;4.498;2024-01-27T00:28:53;10.20;;;2.53;;
60436;SDS011;46289;51.992;4.498;2024-01-27T00:30:58;6.30;;;1.98;;
60436;SDS011;46289;51.992;4.498;2024-01-27T00:33:04;8.38;;;3.08;;
60436;SDS011;46289;51.992;4.498;2024-01-27T00:35:09;11.88;;;2.45;;
60436;SDS011;46289;51.992;4.498;2024-01-27T00:37:16;10.98;;;2.35;;
60436;SDS011;46289;51.992;4.498;2024-01-27T00:39:21;7.38;;;2.85;;
60436;SDS011;46289;51.992;4.498;2024-01-27T00:41:26;6.25;;;2.25;;
60436;SDS011;46289;51.992;4.498;2024-01-27T00:43:28;2.85;;;2.15;;
60436;SDS011;46289;51.992;4.498;2024-01-27T00:45:37;8.93;;;2.38;;
60436;SDS011;46289;51.992;4.498;2024-01-27T00:47:42;5.55;;;2.17;;
60436;SDS011;46289;51.992;4.498;2024-01-27T00:49:48;13.82;;;3.72;;
60436;SDS011;46289;51.992;4.498;2024-01-27T00:51:57;8.27;;;2.97;;
60436;SDS011;46289;51.992;4.498;2024-01-27T00:54:02;11.75;;;2.72;;
60436;SDS011;46289;51.992;4.498;2024-01-27T00:56:05;5.95;;;1.80;;
60436;SDS011;46289;51.992;4.498;2024-01-27T00:58:10;4.53;;;2.60;;
60436;SDS011;46289;51.992;4.498;2024-01-27T01:00:16;7.88;;;2.38;;
60436;SDS011;46289;51.992;4.498;2024-01-27T01:02:24;9.13;;;2.33;;
60436;SDS011;46289;51.992;4.498;2024-01-27T01:04:30;6.75;;;2.33;;
60436;SDS011;46289;51.992;4.498;2024-01-27T01:06:38;12.23;;;3.80;;
60436;SDS011;46289;51.992;4.498;2024-01-27T01:08:43;9.73;;;2.78;;
60436;SDS011;46289;51.992;4.498;2024-01-27T01:10:48;2.53;;;1.73;;
60436;SDS011;46289;51.992;4.498;2024-01-27T01:12:53;2.28;;;1.75;;
60436;SDS011;46289;51.992;4.498;2024-01-27T01:14:56;6.18;;;3.40;;
60436;SDS011;46289;51.992;4.498;2024-01-27T01:17:01;12.07;;;3.00;;
60436;SDS011;46289;51.992;4.498;2024-01-27T01:19:09;5.43;;;2.38;;
60436;SDS011;46289;51.992;4.498;2024-01-27T01:21:12;12.55;;;2.63;;
60436;SDS011;46289;51.992;4.498;2024-01-27T01:23:17;2.10;;;1.80;;
60436;SDS011;46289;51.992;4.498;2024-01-27T01:25:22;10.02;;;2.58;;
60436;SDS011;46289;51.992;4.498;2024-01-27T01:27:27;10.13;;;3.63;;
60436;SDS011;46289;51.992;4.498;2024-01-27T01:29:34;6.40;;;2.33;;
60436;SDS011;46289;51.992;4.498;2024-01-27T01:31:42;10.25;;;2.88;;
60436;SDS011;46289;51.992;4.498;2024-01-27T01:33:44;7.63;;;2.88;;
60436;SDS011;46289;51.992;4.498;2024-01-27T01:35:52;5.55;;;2.65;;
60436;SDS011;46289;51.992;4.498;2024-01-27T01:37:57;9.77;;;2.60;;
60436;SDS011;46289;51.992;4.498;2024-01-27T01:40:00;6.93;;;2.83;;
60436;SDS011;46289;51.992;4.498;2024-01-27T01:42:08;5.80;;;3.05;;
60436;SDS011;46289;51.992;4.498;2024-01-27T01:44:13;10.45;;;2.60;;
60436;SDS011;46289;51.992;4.498;2024-01-27T01:46:15;5.75;;;2.55;;
60436;SDS011;46289;51.992;4.498;2024-01-27T01:48:20;8.68;;;2.72;;
60436;SDS011;46289;51.992;4.498;2024-01-27T01:50:26;16.55;;;2.97;;
60436;SDS011;46289;51.992;4.498;2024-01-27T01:52:34;7.15;;;2.63;;
60436;SDS011;46289;51.992;4.498;2024-01-27T01:54:39;5.60;;;2.55;;
60436;SDS011;46289;51.992;4.498;2024-01-27T01:56:44;7.53;;;2.65;;
60436;SDS011;46289;51.992;4.498;2024-01-27T01:58:49;6.97;;;2.85;;
60436;SDS011;46289;51.992;4.498;2024-01-27T02:00:54;10.57;;;4.20;;
60436;SDS011;46289;51.992;4.498;2024-01-27T02:03:00;7.47;;;2.50;;
60436;SDS011;46289;51.992;4.498;2024-01-27T02:05:05;5.50;;;2.15;;
60436;SDS011;46289;51.992;4.498;2024-01-27T02:07:11;9.88;;;2.25;;
60436;SDS011;46289;51.992;4.498;2024-01-27T02:09:19;8.07;;;3.20;;
60436;SDS011;46289;51.992;4.498;2024-01-27T02:11:24;4.30;;;2.22;;
60436;SDS011;46289;51.992;4.498;2024-01-27T02:13:30;9.80;;;2.50;;
60436;SDS011;46289;51.992;4.498;2024-01-27T02:15:35;10.82;;;2.65;;
60436;SDS011;46289;51.992;4.498;2024-01-27T02:17:40;8.70;;;2.60;;
60436;SDS011;46289;51.992;4.498;2024-01-27T02:19:45;9.18;;;2.75;;
60436;SDS011;46289;51.992;4.498;2024-01-27T02:21:53;9.68;;;2.80;;
60436;SDS011;46289;51.992;4.498;2024-01-27T02:23:58;7.32;;;2.72;;
60436;SDS011;46289;51.992;4.498;2024-01-27T02:26:06;11.00;;;2.35;;
60436;SDS011;46289;51.992;4.498;2024-01-27T02:28:11;9.82;;;2.60;;
60436;SDS011;46289;51.992;4.498;2024-01-27T02:30:17;8.35;;;2.50;;
60436;SDS011;46289;51.992;4.498;2024-01-27T02:32:21;7.25;;;3.03;;
60436;SDS011;46289;51.992;4.498;2024-01-27T02:34:27;12.65;;;3.63;;
60436;SDS011;46289;51.992;4.498;2024-01-27T02:36:33;6.68;;;2.97;;
60436;SDS011;46289;51.992;4.498;2024-01-27T02:38:38;5.53;;;2.90;;
60436;SDS011;46289;51.992;4.498;2024-01-27T02:40:41;3.35;;;2.42;;
60436;SDS011;46289;51.992;4.498;2024-01-27T02:42:48;11.13;;;2.90;;
60436;SDS011;46289;51.992;4.498;2024-01-27T02:44:53;13.73;;;2.65;;
60436;SDS011;46289;51.992;4.498;2024-01-27T02:46:57;7.18;;;2.67;;
60436;SDS011;46289;51.992;4.498;2024-01-27T02:49:02;6.35;;;2.85;;
60436;SDS011;46289;51.992;4.498;2024-01-27T02:51:07;7.47;;;2.78;;
60436;SDS011;46289;51.992;4.498;2024-01-27T02:53:12;10.38;;;3.03;;
60436;SDS011;46289;51.992;4.498;2024-01-27T02:55:17;7.72;;;2.92;;
60436;SDS011;46289;51.992;4.498;2024-01-27T02:57:22;4.55;;;2.20;;
60436;SDS011;46289;51.992;4.498;2024-01-27T02:59:30;5.07;;;2.13;;
60436;SDS011;46289;51.992;4.498;2024-01-27T03:01:35;9.05;;;2.65;;
60436;SDS011;46289;51.992;4.498;2024-01-27T03:03:40;5.07;;;3.35;;
60436;SDS011;46289;51.992;4.498;2024-01-27T03:05:45;5.43;;;2.75;;
60436;SDS011;46289;51.992;4.498;2024-01-27T03:07:50;13.45;;;2.78;;
60436;SDS011;46289;51.992;4.498;2024-01-27T03:09:57;8.25;;;3.30;;
60436;SDS011;46289;51.992;4.498;2024-01-27T03:12:03;9.93;;;3.70;;
60436;SDS011;46289;51.992;4.498;2024-01-27T03:14:09;12.88;;;3.53;;
60436;SDS011;46289;51.992;4.498;2024-01-27T03:16:17;8.32;;;3.38;;
60436;SDS011;46289;51.992;4.498;2024-01-27T03:18:22;11.40;;;5.10;;
60436;SDS011;46289;51.992;4.498;2024-01-27T03:20:28;7.47;;;3.40;;
60436;SDS011;46289;51.992;4.498;2024-01-27T03:22:32;10.18;;;4.47;;
60436;SDS011;46289;51.992;4.498;2024-01-27T03:24:37;17.20;;;3.72;;
60436;SDS011;46289;51.992;4.498;2024-01-27T03:26:44;11.57;;;4.55;;
60436;SDS011;46289;51.992;4.498;2024-01-27T03:28:49;13.85;;;4.88;;
60436;SDS011;46289;51.992;4.498;2024-01-27T03:30:51;10.02;;;4.75;;
60436;SDS011;46289;51.992;4.498;2024-01-27T03:33:00;7.38;;;4.85;;
60436;SDS011;46289;51.992;4.498;2024-01-27T03:35:06;8.60;;;4.45;;
60436;SDS011;46289;51.992;4.498;2024-01-27T03:37:11;10.02;;;4.50;;
60436;SDS011;46289;51.992;4.498;2024-01-27T03:39:16;9.93;;;5.22;;
60436;SDS011;46289;51.992;4.498;2024-01-27T03:41:23;13.35;;;6.57;;
60436;SDS011;46289;51.992;4.498;2024-01-27T03:43:28;13.82;;;5.60;;
60436;SDS011;46289;51.992;4.498;2024-01-27T03:45:33;11.63;;;5.35;;
60436;SDS011;46289;51.992;4.498;2024-01-27T03:47:38;13.77;;;5.75;;
60436;SDS011;46289;51.992;4.498;2024-01-27T03:49:43;15.43;;;7.10;;
60436;SDS011;46289;51.992;4.498;2024-01-27T03:51:48;16.35;;;6.85;;
60436;SDS011;46289;51.992;4.498;2024-01-27T03:53:51;13.75;;;5.45;;
60436;SDS011;46289;51.992;4.498;2024-01-27T03:55:57;17.45;;;7.03;;
60436;SDS011;46289;51.992;4.498;2024-01-27T03:58:07;13.05;;;6.80;;
60436;SDS011;46289;51.992;4.498;2024-01-27T04:00:12;12.75;;;6.45;;
60436;SDS011;46289;51.992;4.498;2024-01-27T04:02:18;9.45;;;5.90;;
60436;SDS011;46289;51.992;4.498;2024-01-27T04:04:23;14.48;;;5.45;;
60436;SDS011;46289;51.992;4.498;2024-01-27T04:06:35;11.73;;;6.63;;
60436;SDS011;46289;51.992;4.498;2024-01-27T04:08:41;16.40;;;7.07;;
60436;SDS011;46289;51.992;4.498;2024-01-27T04:10:46;18.15;;;7.55;;
60436;SDS011;46289;51.992;4.498;2024-01-27T04:12:52;14.23;;;5.93;;
60436;SDS011;46289;51.992;4.498;2024-01-27T04:14:58;11.93;;;5.70;;
60436;SDS011;46289;51.992;4.498;2024-01-27T04:17:03;10.55;;;6.25;;
60436;SDS011;46289;51.992;4.498;2024-01-27T04:19:09;10.23;;;6.18;;
60436;SDS011;46289;51.992;4.498;2024-01-27T04:21:11;13.05;;;6.40;;
60436;SDS011;46289;51.992;4.498;2024-01-27T04:23:19;21.65;;;7.03;;
60436;SDS011;46289;51.992;4.498;2024-01-27T04:25:27;19.23;;;6.55;;
60436;SDS011;46289;51.992;4.498;2024-01-27T04:27:53;13.88;;;7.20;;
60436;SDS011;46289;51.992;4.498;2024-01-27T04:30:08;13.75;;;6.03;;
60436;SDS011;46289;51.992;4.498;2024-01-27T04:32:45;20.07;;;7.37;;
60436;SDS011;46289;51.992;4.498;2024-01-27T04:34:51;12.95;;;6.88;;
60436;SDS011;46289;51.992;4.498;2024-01-27T04:36:58;10.57;;;5.93;;
60436;SDS011;46289;51.992;4.498;2024-01-27T04:39:06;15.40;;;7.18;;
60436;SDS011;46289;51.992;4.498;2024-01-27T04:41:11;12.70;;;5.85;;
60436;SDS011;46289;51.992;4.498;2024-01-27T04:43:14;14.77;;;6.50;;
60436;SDS011;46289;51.992;4.498;2024-01-27T04:45:19;12.55;;;5.60;;
60436;SDS011;46289;51.992;4.498;2024-01-27T04:47:22;12.23;;;5.85;;
60436;SDS011;46289;51.992;4.498;2024-01-27T04:49:27;13.35;;;7.93;;
60436;SDS011;46289;51.992;4.498;2024-01-27T04:51:32;21.75;;;9.25;;
60436;SDS011;46289;51.992;4.498;2024-01-27T04:53:35;12.77;;;7.10;;
60436;SDS011;46289;51.992;4.498;2024-01-27T04:55:43;9.82;;;6.05;;
60436;SDS011;46289;51.992;4.498;2024-01-27T04:57:48;11.40;;;6.43;;
60436;SDS011;46289;51.992;4.498;2024-01-27T04:59:53;10.93;;;6.40;;
60436;SDS011;46289;51.992;4.498;2024-01-27T05:01:57;14.05;;;7.53;;
60436;SDS011;46289;51.992;4.498;2024-01-27T05:04:02;13.60;;;7.47;;
60436;SDS011;46289;51.992;4.498;2024-01-27T05:06:07;15.77;;;7.97;;
60436;SDS011;46289;51.992;4.498;2024-01-27T05:08:12;12.80;;;6.30;;
60436;SDS011;46289;51.992;4.498;2024-01-27T05:10:17;11.45;;;8.35;;
60436;SDS011;46289;51.992;4.498;2024-01-27T05:12:26;13.18;;;6.95;;
60436;SDS011;46289;51.992;4.498;2024-01-27T05:14:32;9.80;;;6.65;;
60436;SDS011;46289;51.992;4.498;2024-01-27T05:16:37;13.25;;;7.65;;
60436;SDS011;46289;51.992;4.498;2024-01-27T05:18:41;11.73;;;6.47;;
60436;SDS011;46289;51.992;4.498;2024-01-27T05:20:46;13.45;;;6.63;;
60436;SDS011;46289;51.992;4.498;2024-01-27T05:22:52;11.55;;;6.20;;
60436;SDS011;46289;51.992;4.498;2024-01-27T05:24:56;11.65;;;5.50;;
60436;SDS011;46289;51.992;4.498;2024-01-27T05:27:02;11.77;;;6.78;;
60436;SDS011;46289;51.992;4.498;2024-01-27T05:29:10;11.88;;;6.72;;
60436;SDS011;46289;51.992;4.498;2024-01-27T05:31:15;11.77;;;6.45;;
60436;SDS011;46289;51.992;4.498;2024-01-27T05:33:20;12.23;;;6.85;;
60436;SDS011;46289;51.992;4.498;2024-01-27T05:35:26;9.30;;;5.07;;
60436;SDS011;46289;51.992;4.498;2024-01-27T05:37:31;20.98;;;8.50;;
60436;SDS011;46289;51.992;4.498;2024-01-27T05:39:36;14.45;;;6.32;;
60436;SDS011;46289;51.992;4.498;2024-01-27T05:41:41;11.30;;;6.22;;
60436;SDS011;46289;51.992;4.498;2024-01-27T05:43:46;12.73;;;7.88;;
60436;SDS011;46289;51.992;4.498;2024-01-27T05:45:54;15.40;;;6.90;;
60436;SDS011;46289;51.992;4.498;2024-01-27T05:47:59;12.10;;;6.05;;
60436;SDS011;46289;51.992;4.498;2024-01-27T05:50:05;10.00;;;5.38;;
60436;SDS011;46289;51.992;4.498;2024-01-27T05:52:11;11.73;;;7.22;;
60436;SDS011;46289;51.992;4.498;2024-01-27T05:54:28;14.68;;;7.72;;
60436;SDS011;46289;51.992;4.498;2024-01-27T05:56:37;13.15;;;7.88;;
60436;SDS011;46289;51.992;4.498;2024-01-27T05:58:42;10.13;;;5.13;;
60436;SDS011;46289;51.992;4.498;2024-01-27T06:00:47;17.23;;;5.97;;
60436;SDS011;46289;51.992;4.498;2024-01-27T06:02:58;14.25;;;7.03;;
60436;SDS011;46289;51.992;4.498;2024-01-27T06:05:04;10.48;;;6.22;;
60436;SDS011;46289;51.992;4.498;2024-01-27T06:07:10;33.40;;;7.50;;
60436;SDS011;46289;51.992;4.498;2024-01-27T06:09:15;15.60;;;7.95;;
60436;SDS011;46289;51.992;4.498;2024-01-27T06:11:24;15.13;;;5.95;;
60436;SDS011;46289;51.992;4.498;2024-01-27T06:13:26;14.15;;;6.65;;
60436;SDS011;46289;51.992;4.498;2024-01-27T06:15:31;10.18;;;6.05;;
60436;SDS011;46289;51.992;4.498;2024-01-27T06:17:37;11.02;;;6.85;;
60436;SDS011;46289;51.992;4.498;2024-01-27T06:19:44;15.25;;;6.95;;
60436;SDS011;46289;51.992;4.498;2024-01-27T06:21:49;14.10;;;6.85;;
60436;SDS011;46289;51.992;4.498;2024-01-27T06:23:55;10.82;;;6.53;;
60436;SDS011;46289;51.992;4.498;2024-01-27T06:26:03;7.25;;;5.43;;
60436;SDS011;46289;51.992;4.498;2024-01-27T06:28:09;12.65;;;6.70;;
60436;SDS011;46289;51.992;4.498;2024-01-27T06:30:16;16.23;;;6.88;;
60436;SDS011;46289;51.992;4.498;2024-01-27T06:32:22;13.95;;;7.47;;
60436;SDS011;46289;51.992;4.498;2024-01-27T06:34:27;15.68;;;7.03;;
60436;SDS011;46289;51.992;4.498;2024-01-27T06:36:35;15.20;;;7.40;;
60436;SDS011;46289;51.992;4.498;2024-01-27T06:38:40;12.40;;;7.57;;
60436;SDS011;46289;51.992;4.498;2024-01-27T06:40:43;14.73;;;6.55;;
60436;SDS011;46289;51.992;4.498;2024-01-27T06:42:48;15.63;;;7.43;;
60436;SDS011;46289;51.992;4.498;2024-01-27T06:44:53;14.20;;;7.40;;
60436;SDS011;46289;51.992;4.498;2024-01-27T06:46:58;13.48;;;8.55;;
60436;SDS011;46289;51.992;4.498;2024-01-27T06:49:02;15.65;;;8.00;;
60436;SDS011;46289;51.992;4.498;2024-01-27T06:51:08;13.82;;;8.23;;
60436;SDS011;46289;51.992;4.498;2024-01-27T06:53:17;12.70;;;7.60;;
60436;SDS011;46289;51.992;4.498;2024-01-27T06:55:24;12.35;;;8.10;;
60436;SDS011;46289;51.992;4.498;2024-01-27T06:57:29;14.70;;;9.45;;
60436;SDS011;46289;51.992;4.498;2024-01-27T06:59:35;15.65;;;8.13;;
60436;SDS011;46289;51.992;4.498;2024-01-27T07:01:38;16.70;;;8.52;;
60436;SDS011;46289;51.992;4.498;2024-01-27T07:03:43;17.40;;;8.80;;
60436;SDS011;46289;51.992;4.498;2024-01-27T07:05:49;24.20;;;10.07;;
60436;SDS011;46289;51.992;4.498;2024-01-27T07:07:54;17.77;;;9.23;;
60436;SDS011;46289;51.992;4.498;2024-01-27T07:10:01;11.05;;;7.85;;
60436;SDS011;46289;51.992;4.498;2024-01-27T07:12:09;12.65;;;8.55;;
60436;SDS011;46289;51.992;4.498;2024-01-27T07:14:14;13.80;;;7.93;;
60436;SDS011;46289;51.992;4.498;2024-01-27T07:16:16;15.93;;;8.27;;
60436;SDS011;46289;51.992;4.498;2024-01-27T07:18:21;10.95;;;7.15;;
60436;SDS011;46289;51.992;4.498;2024-01-27T07:20:26;15.82;;;9.02;;
60436;SDS011;46289;51.992;4.498;2024-01-27T07:22:33;15.65;;;8.70;;
60436;SDS011;46289;51.992;4.498;2024-01-27T07:24:38;17.55;;;9.13;;
60436;SDS011;46289;51.992;4.498;2024-01-27T07:26:45;20.75;;;9.43;;
60436;SDS011;46289;51.992;4.498;2024-01-27T07:28:54;20.05;;;7.93;;
60436;SDS011;46289;51.992;4.498;2024-01-27T07:30:59;15.23;;;9.20;;
60436;SDS011;46289;51.992;4.498;2024-01-27T07:33:05;14.98;;;9.32;;
60436;SDS011;46289;51.992;4.498;2024-01-27T07:35:11;13.90;;;9.35;;
60436;SDS011;46289;51.992;4.498;2024-01-27T07:37:17;14.82;;;7.88;;
60436;SDS011;46289;51.992;4.498;2024-01-27T07:39:20;19.00;;;9.48;;
60436;SDS011;46289;51.992;4.498;2024-01-27T07:41:25;14.55;;;9.77;;
60436;SDS011;46289;51.992;4.498;2024-01-27T07:43:38;15.90;;;8.55;;
60436;SDS011;46289;51.992;4.498;2024-01-27T07:45:43;11.88;;;8.48;;
60436;SDS011;46289;51.992;4.498;2024-01-27T07:47:48;14.95;;;9.60;;
60436;SDS011;46289;51.992;4.498;2024-01-27T07:49:54;24.98;;;11.07;;
60436;SDS011;46289;51.992;4.498;2024-01-27T07:51:59;15.30;;;8.30;;
60436;SDS011;46289;51.992;4.498;2024-01-27T07:54:04;16.05;;;9.38;;
60436;SDS011;46289;51.992;4.498;2024-01-27T07:56:09;17.50;;;9.48;;
60436;SDS011;46289;51.992;4.498;2024-01-27T07:58:14;14.70;;;9.20;;
60436;SDS011;46289;51.992;4.498;2024-01-27T08:00:24;12.48;;;9.43;;
60436;SDS011;46289;51.992;4.498;2024-01-27T08:02:31;12.95;;;9.23;;
60436;SDS011;46289;51.992;4.498;2024-01-27T08:04:33;12.25;;;8.48;;
60436;SDS011;46289;51.992;4.498;2024-01-27T08:06:45;11.63;;;8.32;;
60436;SDS011;46289;51.992;4.498;2024-01-27T08:08:48;14.93;;;9.00;;
60436;SDS011;46289;51.992;4.498;2024-01-27T08:10:53;13.57;;;9.27;;
60436;SDS011;46289;51.992;4.498;2024-01-27T08:12:58;16.88;;;9.68;;
60436;SDS011;46289;51.992;4.498;2024-01-27T08:17:12;19.52;;;8.27;;
60436;SDS011;46289;51.992;4.498;2024-01-27T08:19:17;19.60;;;9.77;;
60436;SDS011;46289;51.992;4.498;2024-01-27T08:21:23;18.73;;;8.85;;
60436;SDS011;46289;51.992;4.498;2024-01-27T08:23:28;16.77;;;8.52;;
60436;SDS011;46289;51.992;4.498;2024-01-27T08:25:33;17.75;;;10.10;;
60436;SDS011;46289;51.992;4.498;2024-01-27T08:27:38;22.98;;;9.35;;
60436;SDS011;46289;51.992;4.498;2024-01-27T08:29:40;14.65;;;8.57;;
60436;SDS011;46289;51.992;4.498;2024-01-27T08:31:45;17.63;;;8.38;;
60436;SDS011;46289;51.992;4.498;2024-01-27T08:33:50;13.77;;;9.63;;
60436;SDS011;46289;51.992;4.498;2024-01-27T08:35:56;27.88;;;10.15;;
60436;SDS011;46289;51.992;4.498;2024-01-27T08:38:01;17.50;;;9.73;;
60436;SDS011;46289;51.992;4.498;2024-01-27T08:40:08;15.15;;;8.55;;
60436;SDS011;46289;51.992;4.498;2024-01-27T08:42:13;16.90;;;9.65;;
60436;SDS011;46289;51.992;4.498;2024-01-27T08:44:18;21.23;;;10.10;;
60436;SDS011;46289;51.992;4.498;2024-01-27T08:46:24;18.17;;;9.95;;
60436;SDS011;46289;51.992;4.498;2024-01-27T08:48:30;17.42;;;9.75;;
60436;SDS011;46289;51.992;4.498;2024-01-27T08:50:35;14.65;;;9.15;;
60436;SDS011;46289;51.992;4.498;2024-01-27T08:52:40;16.48;;;9.15;;
60436;SDS011;46289;51.992;4.498;2024-01-27T08:54:42;19.42;;;9.95;;
60436;SDS011;46289;51.992;4.498;2024-01-27T08:56:48;21.75;;;10.93;;
60436;SDS011;46289;51.992;4.498;2024-01-27T08:58:53;15.00;;;9.23;;
60436;SDS011;46289;51.992;4.498;2024-01-27T09:00:58;16.70;;;11.38;;
60436;SDS011;46289;51.992;4.498;2024-01-27T09:03:07;17.40;;;10.73;;
60436;SDS011;46289;51.992;4.498;2024-01-27T09:05:13;16.70;;;10.32;;
60436;SDS011;46289;51.992;4.498;2024-01-27T09:07:19;15.73;;;8.95;;
60436;SDS011;46289;51.992;4.498;2024-01-27T09:09:24;18.42;;;9.52;;
60436;SDS011;46289;51.992;4.498;2024-01-27T09:11:31;23.30;;;11.30;;
60436;SDS011;46289;51.992;4.498;2024-01-27T09:13:36;20.92;;;10.30;;
60436;SDS011;46289;51.992;4.498;2024-01-27T09:15:38;17.67;;;11.52;;
60436;SDS011;46289;51.992;4.498;2024-01-27T09:17:44;22.10;;;10.48;;
60436;SDS011;46289;51.992;4.498;2024-01-27T09:19:51;16.20;;;10.23;;
60436;SDS011;46289;51.992;4.498;2024-01-27T09:21:56;15.27;;;9.65;;
60436;SDS011;46289;51.992;4.498;2024-01-27T09:24:04;19.17;;;10.25;;
60436;SDS011;46289;51.992;4.498;2024-01-27T09:26:11;21.90;;;10.35;;
60436;SDS011;46289;51.992;4.498;2024-01-27T09:28:20;19.52;;;10.32;;
60436;SDS011;46289;51.992;4.498;2024-01-27T09:30:25;20.35;;;11.18;;
60436;SDS011;46289;51.992;4.498;2024-01-27T09:32:33;16.95;;;10.40;;
60436;SDS011;46289;51.992;4.498;2024-01-27T09:34:39;21.17;;;11.63;;
60436;SDS011;46289;51.992;4.498;2024-01-27T09:36:44;15.82;;;11.48;;
60436;SDS011;46289;51.992;4.498;2024-01-27T09:38:49;18.55;;;11.52;;
60436;SDS011;46289;51.992;4.498;2024-01-27T09:40:58;20.77;;;12.13;;
60436;SDS011;46289;51.992;4.498;2024-01-27T09:43:03;19.38;;;11.90;;
60436;SDS011;46289;51.992;4.498;2024-01-27T09:45:09;16.65;;;9.63;;
60436;SDS011;46289;51.992;4.498;2024-01-27T09:47:16;23.17;;;11.70;;
60436;SDS011;46289;51.992;4.498;2024-01-27T09:49:22;19.00;;;10.50;;
60436;SDS011;46289;51.992;4.498;2024-01-27T09:51:28;15.98;;;10.52;;
60436;SDS011;46289;51.992;4.498;2024-01-27T09:53:36;30.05;;;11.45;;
60436;SDS011;46289;51.992;4.498;2024-01-27T09:57:46;20.00;;;11.45;;
60436;SDS011;46289;51.992;4.498;2024-01-27T09:59:53;20.40;;;10.10;;
60436;SDS011;46289;51.992;4.498;2024-01-27T10:02:02;20.05;;;10.57;;
60436;SDS011;46289;51.992;4.498;2024-01-27T10:04:08;15.82;;;9.55;;
60436;SDS011;46289;51.992;4.498;2024-01-27T10:06:16;17.15;;;10.80;;
60436;SDS011;46289;51.992;4.498;2024-01-27T10:08:23;21.67;;;10.25;;
60436;SDS011;46289;51.992;4.498;2024-01-27T10:10:28;23.40;;;11.20;;
60436;SDS011;46289;51.992;4.498;2024-01-27T10:12:34;22.38;;;11.25;;
60436;SDS011;46289;51.992;4.498;2024-01-27T10:14:46;25.75;;;11.40;;
60436;SDS011;46289;51.992;4.498;2024-01-27T10:16:53;23.27;;;9.43;;
60436;SDS011;46289;51.992;4.498;2024-01-27T10:18:59;17.30;;;10.25;;
60436;SDS011;46289;51.992;4.498;2024-01-27T10:21:11;19.20;;;9.60;;
60436;SDS011;46289;51.992;4.498;2024-01-27T10:23:20;15.73;;;9.57;;
60436;SDS011;46289;51.992;4.498;2024-01-27T10:25:25;15.18;;;8.23;;
60436;SDS011;46289;51.992;4.498;2024-01-27T10:27:30;21.38;;;8.85;;
60436;SDS011;46289;51.992;4.498;2024-01-27T10:29:35;20.60;;;8.30;;
60436;SDS011;46289;51.992;4.498;2024-01-27T10:31:42;20.17;;;8.98;;
60436;SDS011;46289;51.992;4.498;2024-01-27T10:33:51;12.32;;;7.10;;
60436;SDS011;46289;51.992;4.498;2024-01-27T10:35:57;17.90;;;7.85;;
60436;SDS011;46289;51.992;4.498;2024-01-27T10:38:04;18.88;;;7.60;;
60436;SDS011;46289;51.992;4.498;2024-01-27T10:40:07;20.30;;;8.18;;
60436;SDS011;46289;51.992;4.498;2024-01-27T10:42:14;21.15;;;7.57;;
60436;SDS011;46289;51.992;4.498;2024-01-27T10:44:20;12.60;;;7.55;;
60436;SDS011;46289;51.992;4.498;2024-01-27T10:46:27;21.33;;;6.57;;
60436;SDS011;46289;51.992;4.498;2024-01-27T10:48:36;12.68;;;6.72;;
60436;SDS011;46289;51.992;4.498;2024-01-27T10:50:42;16.75;;;6.47;;
60436;SDS011;46289;51.992;4.498;2024-01-27T10:52:47;15.40;;;5.97;;
60436;SDS011;46289;51.992;4.498;2024-01-27T10:54:52;12.55;;;5.95;;
60436;SDS011;46289;51.992;4.498;2024-01-27T10:56:59;13.73;;;6.88;;
60436;SDS011;46289;51.992;4.498;2024-01-27T10:59:04;18.15;;;7.90;;
60436;SDS011;46289;51.992;4.498;2024-01-27T11:01:10;11.13;;;6.32;;
60436;SDS011;46289;51.992;4.498;2024-01-27T11:03:17;16.55;;;6.50;;
60436;SDS011;46289;51.992;4.498;2024-01-27T11:05:26;17.90;;;6.63;;
60436;SDS011;46289;51.992;4.498;2024-01-27T11:07:32;12.40;;;5.95;;
60436;SDS011;46289;51.992;4.498;2024-01-27T11:09:38;21.17;;;8.23;;
60436;SDS011;46289;51.992;4.498;2024-01-27T11:11:44;13.40;;;6.40;;
60436;SDS011;46289;51.992;4.498;2024-01-27T11:13:47;16.02;;;6.38;;
60436;SDS011;46289;51.992;4.498;2024-01-27T11:15:53;11.95;;;6.50;;
60436;SDS011;46289;51.992;4.498;2024-01-27T11:18:00;13.77;;;6.40;;
60436;SDS011;46289;51.992;4.498;2024-01-27T11:20:06;9.65;;;5.63;;
60436;SDS011;46289;51.992;4.498;2024-01-27T11:22:22;16.27;;;6.38;;
60436;SDS011;46289;51.992;4.498;2024-01-27T11:24:29;14.85;;;6.72;;
60436;SDS011;46289;51.992;4.498;2024-01-27T11:26:35;13.60;;;6.43;;
60436;SDS011;46289;51.992;4.498;2024-01-27T11:28:39;19.35;;;7.53;;
60436;SDS011;46289;51.992;4.498;2024-01-27T11:30:46;12.85;;;5.85;;
60436;SDS011;46289;51.992;4.498;2024-01-27T11:32:52;17.10;;;7.35;;
60436;SDS011;46289;51.992;4.498;2024-01-27T11:34:55;16.35;;;6.80;;
60436;SDS011;46289;51.992;4.498;2024-01-27T11:37:09;15.55;;;6.70;;
60436;SDS011;46289;51.992;4.498;2024-01-27T11:39:27;14.80;;;7.20;;
60436;SDS011;46289;51.992;4.498;2024-01-27T11:41:34;13.35;;;6.18;;
60436;SDS011;46289;51.992;4.498;2024-01-27T11:43:41;20.38;;;8.30;;
60436;SDS011;46289;51.992;4.498;2024-01-27T11:45:54;14.35;;;7.20;;
60436;SDS011;46289;51.992;4.498;2024-01-27T11:48:00;12.27;;;5.85;;
60436;SDS011;46289;51.992;4.498;2024-01-27T11:50:05;16.00;;;6.18;;
60436;SDS011;46289;51.992;4.498;2024-01-27T11:52:11;11.95;;;6.18;;
60436;SDS011;46289;51.992;4.498;2024-01-27T11:54:17;16.23;;;6.72;;
60436;SDS011;46289;51.992;4.498;2024-01-27T11:56:22;18.33;;;5.68;;
60436;SDS011;46289;51.992;4.498;2024-01-27T11:58:29;20.80;;;7.18;;
60436;SDS011;46289;51.992;4.498;2024-01-27T12:00:37;12.27;;;7.03;;
60436;SDS011;46289;51.992;4.498;2024-01-27T12:02:43;14.73;;;6.32;;
60436;SDS011;46289;51.992;4.498;2024-01-27T12:04:48;11.30;;;6.22;;
60436;SDS011;46289;51.992;4.498;2024-01-27T12:06:53;15.05;;;7.22;;
60436;SDS011;46289;51.992;4.498;2024-01-27T12:08:59;13.95;;;6.53;;
60436;SDS011;46289;51.992;4.498;2024-01-27T12:11:04;22.65;;;8.85;;
60436;SDS011;46289;51.992;4.498;2024-01-27T12:13:12;19.65;;;6.63;;
60436;SDS011;46289;51.992;4.498;2024-01-27T12:15:17;16.50;;;6.40;;
60436;SDS011;46289;51.992;4.498;2024-01-27T12:17:23;14.77;;;6.32;;
60436;SDS011;46289;51.992;4.498;2024-01-27T12:19:28;17.75;;;6.72;;
60436;SDS011;46289;51.992;4.498;2024-01-27T12:21:31;12.95;;;6.22;;
60436;SDS011;46289;51.992;4.498;2024-01-27T12:23:47;14.77;;;5.68;;
60436;SDS011;46289;51.992;4.498;2024-01-27T12:25:56;11.07;;;5.88;;
60436;SDS011;46289;51.992;4.498;2024-01-27T12:28:01;12.25;;;5.22;;
60436;SDS011;46289;51.992;4.498;2024-01-27T12:30:10;16.58;;;5.60;;
60436;SDS011;46289;51.992;4.498;2024-01-27T12:32:17;12.68;;;5.90;;
60436;SDS011;46289;51.992;4.498;2024-01-27T12:34:22;14.23;;;5.68;;